Huntington, West Virginia
Current Conditions -  °F | °C
As of 1:51 AM on Friday 28 Nov 2014 (Local Time) from KHTS Reporting Station
Light Snow Light Snow  
Wind Chill: 20°   Ceiling: 2300
Heat Index: 29°   Visibility: 5mi
Dew Point: 23°   Wind: 9mph
Humidity: 78%   Direction: 300°WNW
Pressure: 30.35"   Gusts: NA
Location:  38.42°N, 82.44°W
Report Text: KHTS 280651Z 30008KT 5SM -SN SCT017 BKN023 OVC035 M02/M05 A3035 RMK AO2 SLP286 P0000 T10171050
Loading
Personal Weather Stations






























Interactive Weather Map New forecast layout! Learn more

10-Day Weather Forecast

Advertisements
Track Severe Weather on mobile